createdAt,value
2019-06-01T00:02:20.678Z,102076.32
2019-06-01T00:04:49.500Z,102075.00
2019-06-01T00:07:18.154Z,102074.93
2019-06-01T00:09:47.225Z,102079.73
2019-06-01T00:12:15.821Z,102074.00
2019-06-01T00:14:45.630Z,102070.92
2019-06-01T00:17:14.507Z,102073.95
2019-06-01T00:19:44.704Z,102074.37
2019-06-01T00:22:13.196Z,102071.73
2019-06-01T00:24:41.780Z,102073.45
2019-06-01T00:27:10.355Z,102066.86
2019-06-01T00:29:38.856Z,102070.77
2019-06-01T00:32:07.341Z,102060.70
2019-06-01T00:34:35.901Z,102063.73
2019-06-01T00:37:04.387Z,102068.95
2019-06-01T00:39:32.927Z,102068.02
2019-06-01T00:42:01.468Z,102071.50
2019-06-01T00:44:29.956Z,102064.92
2019-06-01T00:46:58.508Z,102067.52
2019-06-01T00:49:27.032Z,102066.65
2019-06-01T00:51:55.517Z,102069.22
2019-06-01T00:54:23.990Z,102064.41
2019-06-01T00:56:53.733Z,102065.73
2019-06-01T00:59:22.477Z,102069.63
2019-06-01T01:01:52.355Z,102070.91
2019-06-01T01:04:20.990Z,102070.45
2019-06-01T01:06:50.790Z,102070.42
2019-06-01T01:09:19.345Z,102072.98
2019-06-01T01:11:49.159Z,102067.75
2019-06-01T01:14:17.735Z,102067.72
2019-06-01T01:16:47.418Z,102056.34
2019-06-01T01:19:16.037Z,102064.20
2019-06-01T01:21:45.871Z,102063.30
2019-06-01T01:24:14.481Z,102065.92
2019-06-01T01:26:43.062Z,102064.17
2019-06-01T01:29:11.544Z,102057.63
2019-06-01T01:31:40.040Z,102052.81
2019-06-01T01:34:08.571Z,102058.06
2019-06-01T01:36:37.056Z,102052.84
2019-06-01T01:39:07.583Z,102050.66
2019-06-01T01:41:36.142Z,102053.31
2019-06-01T01:44:04.954Z,102050.25
2019-06-01T01:46:33.508Z,102051.59
2019-06-01T01:49:02.601Z,102053.83
2019-06-01T01:51:31.237Z,102053.85
2019-06-01T01:53:59.730Z,102051.25
2019-06-01T01:56:28.255Z,102048.25
2019-06-01T01:58:56.740Z,102046.52
2019-06-01T02:01:25.293Z,102046.55
2019-06-01T02:03:55.465Z,102053.59
2019-06-01T02:06:24.493Z,102047.93
2019-06-01T02:08:53.583Z,102045.34
2019-06-01T02:11:22.156Z,102047.08
2019-06-01T02:13:51.513Z,102034.41
2019-06-01T02:16:20.205Z,102033.09
2019-06-01T02:18:48.731Z,102023.89
2019-06-01T02:21:17.242Z,102021.72
2019-06-01T02:23:45.732Z,102015.58
2019-06-01T02:26:14.268Z,102026.52
2019-06-01T02:28:42.786Z,102023.88
2019-06-01T02:31:11.354Z,102027.38
2019-06-01T02:33:39.893Z,102025.19
2019-06-01T02:36:08.396Z,102019.48
2019-06-01T02:38:37.037Z,102026.86
2019-06-01T02:41:05.838Z,102025.97
2019-06-01T02:43:34.345Z,102025.08
2019-06-01T02:46:04.996Z,102022.86
2019-06-01T02:48:33.090Z,102029.42
2019-06-01T02:51:01.931Z,102026.34
2019-06-01T02:53:30.658Z,102025.02
2019-06-01T02:55:59.920Z,102033.35
2019-06-01T02:58:28.497Z,102031.60
2019-06-01T03:01:25.789Z,102028.98
2019-06-01T03:03:55.047Z,102023.73
2019-06-01T03:06:23.930Z,102032.50
2019-06-01T03:08:53.251Z,102026.82
2019-06-01T03:11:22.980Z,102025.92
2019-06-01T03:13:54.678Z,102025.05
2019-06-01T03:16:23.367Z,102023.72
2019-06-01T03:18:53.017Z,102025.47
2019-06-01T03:21:22.700Z,102025.89
2019-06-01T03:23:52.775Z,102017.19
2019-06-01T03:26:21.621Z,102027.69
2019-06-01T03:28:53.618Z,102024.22
2019-06-01T03:31:22.166Z,102024.68
2019-06-01T03:33:50.637Z,102028.63
2019-06-01T03:36:19.122Z,102019.48
2019-06-01T03:38:47.650Z,102023.88
2019-06-01T03:41:16.133Z,102025.22
2019-06-01T03:43:44.609Z,102019.08
2019-06-01T03:46:13.213Z,102020.77
2019-06-01T03:48:41.712Z,102020.77
2019-06-01T03:51:10.172Z,102017.69
2019-06-01T03:53:38.810Z,102022.96
2019-06-01T03:56:07.321Z,102028.66
2019-06-01T03:58:35.802Z,102019.08
2019-06-01T04:01:05.214Z,102020.84
2019-06-01T04:03:33.758Z,102017.37
2019-06-01T04:06:03.336Z,102021.36
2019-06-01T04:08:32.133Z,102016.63
2019-06-01T04:11:01.394Z,102011.45
2019-06-01T04:13:29.984Z,102011.91
2019-06-01T04:15:58.525Z,102011.95
2019-06-01T04:18:27.002Z,102016.36
2019-06-01T04:20:55.479Z,102022.57
2019-06-01T04:23:24.004Z,102012.52
2019-06-01T04:25:52.556Z,102009.05
2019-06-01T04:28:21.036Z,102011.26
2019-06-01T04:30:49.571Z,102006.02
2019-06-01T04:33:18.064Z,102013.49
2019-06-01T04:35:46.550Z,102014.42
2019-06-01T04:38:15.077Z,102008.78
2019-06-01T04:40:43.566Z,102015.36
2019-06-01T04:43:12.140Z,102008.86
2019-06-01T04:45:40.676Z,102014.15
2019-06-01T04:48:10.495Z,102015.47
2019-06-01T04:50:39.228Z,102014.62
2019-06-01T04:53:08.848Z,102012.44
2019-06-01T04:55:37.478Z,102003.71
2019-06-01T04:58:06.808Z,102009.89
2019-06-01T05:00:35.480Z,102012.53
2019-06-01T05:03:06.822Z,102016.91
2019-06-01T05:05:34.544Z,102018.72
2019-06-01T05:08:03.068Z,102016.11
2019-06-01T05:10:31.688Z,102017.42
2019-06-01T05:13:00.252Z,102013.89
2019-06-01T05:15:28.877Z,102009.06
2019-06-01T05:17:57.384Z,102009.47
2019-06-01T05:20:25.871Z,102009.04
2019-06-01T05:22:54.407Z,102005.48
2019-06-01T05:25:22.902Z,102006.34
2019-06-01T05:27:51.401Z,102006.28
2019-06-01T05:30:20.058Z,102010.18
2019-06-01T05:32:48.582Z,102009.25
2019-06-01T05:35:17.984Z,102017.97
2019-06-01T05:37:46.659Z,102021.44
2019-06-01T05:40:16.670Z,102016.14
2019-06-01T05:42:45.256Z,102017.39
2019-06-01T05:45:15.101Z,102019.48
2019-06-01T05:47:43.718Z,102014.55
2019-06-01T05:50:12.381Z,102011.42
2019-06-01T05:52:41.480Z,102015.80
2019-06-01T05:55:10.384Z,102021.49
2019-06-01T05:57:39.185Z,102017.60
2019-06-01T06:00:08.985Z,102012.80
2019-06-01T06:02:38.427Z,102015.03
2019-06-01T06:05:07.678Z,102012.39
2019-06-01T06:07:37.244Z,102018.47
2019-06-01T06:10:06.593Z,102017.53
2019-06-01T06:12:35.310Z,102012.19
2019-06-01T06:15:04.641Z,102005.94
2019-06-01T06:17:33.125Z,102007.63
2019-06-01T06:20:01.665Z,102004.95
2019-06-01T06:22:30.132Z,102010.56
2019-06-01T06:24:58.629Z,102005.61
2019-06-01T06:27:27.147Z,102003.84
2019-06-01T06:29:55.628Z,102007.26
2019-06-01T06:32:24.131Z,102000.14
2019-06-01T06:34:52.656Z,102000.02
2019-06-01T06:37:21.869Z,102000.82
2019-06-01T06:39:50.502Z,102004.69
2019-06-01T06:42:20.242Z,102004.55
2019-06-01T06:44:48.925Z,102005.33
2019-06-01T06:47:17.429Z,102005.63
2019-06-01T06:49:45.978Z,102004.66
2019-06-01T06:52:15.282Z,102009.36
2019-06-01T06:54:43.900Z,102015.01
2019-06-01T06:57:12.426Z,102014.95
2019-06-01T06:59:40.911Z,102016.20
2019-06-01T07:02:09.404Z,102023.27
2019-06-01T07:04:37.923Z,102023.67
2019-06-01T07:07:06.398Z,102034.19
2019-06-01T07:09:34.897Z,102027.98
2019-06-01T07:12:03.435Z,102035.46
2019-06-01T07:14:32.942Z,102030.18
2019-06-01T07:17:01.443Z,102031.10
2019-06-01T07:19:29.943Z,102032.30
2019-06-01T07:21:58.424Z,102033.04
2019-06-01T07:24:28.056Z,102031.48
2019-06-01T07:26:57.032Z,102022.11
2019-06-01T07:29:26.287Z,102017.61
2019-06-01T07:31:54.896Z,102022.48
2019-06-01T07:34:35.087Z,102027.27
2019-06-01T07:36:53.743Z,102024.06
2019-06-01T07:39:22.609Z,102031.79
2019-06-01T07:41:51.572Z,102019.67
2019-06-01T07:44:20.823Z,102020.32
2019-06-01T07:46:49.573Z,102028.17
2019-06-01T07:49:18.129Z,102024.11
2019-06-01T07:51:46.876Z,102020.90
2019-06-01T07:54:15.766Z,102023.84
2019-06-01T07:56:44.571Z,102024.95
2019-06-01T07:59:13.052Z,102022.51
2019-06-01T08:01:41.561Z,102030.28
2019-06-01T08:04:10.096Z,102027.77
2019-06-01T08:06:45.064Z,102027.96
2019-06-01T08:09:08.967Z,102028.34
2019-06-01T08:11:37.484Z,102033.73
2019-06-01T08:14:06.076Z,102030.91
2019-06-01T08:16:34.871Z,102029.76
2019-06-01T08:19:03.390Z,102030.70
2019-06-01T08:21:32.409Z,102033.35
2019-06-01T08:24:00.966Z,102032.88
2019-06-01T08:26:30.544Z,102035.32
2019-06-01T08:28:59.160Z,102025.92
2019-06-01T08:31:28.727Z,102024.06
2019-06-01T08:33:57.360Z,102021.22
2019-06-01T08:36:27.256Z,102019.23
2019-06-01T08:38:55.811Z,102017.91
2019-06-01T08:41:25.534Z,102012.06
2019-06-01T08:43:54.120Z,102004.50
2019-06-01T08:46:23.664Z,102004.79
2019-06-01T08:48:52.305Z,102007.80
2019-06-01T08:51:21.163Z,102003.37
2019-06-01T08:53:49.678Z,101999.86
2019-06-01T08:56:21.646Z,101997.46
2019-06-01T08:58:48.496Z,101997.40
2019-06-01T09:01:17.045Z,101995.70
2019-06-01T09:03:46.884Z,101985.16
2019-06-01T09:06:15.639Z,101975.00
2019-06-01T09:08:44.191Z,101957.28
2019-06-01T09:11:12.714Z,101959.08
2019-06-01T09:13:41.266Z,101957.28
2019-06-01T09:16:09.774Z,101950.39
2019-06-01T09:18:39.437Z,101939.74
2019-06-01T09:21:07.889Z,101948.48
2019-06-01T09:23:37.436Z,101947.91
2019-06-01T09:26:06.341Z,101934.92
2019-06-01T09:28:36.094Z,101928.13
2019-06-01T09:31:04.963Z,101938.17
2019-06-01T09:33:35.117Z,101928.41
2019-06-01T09:36:03.920Z,101933.73
2019-06-01T09:38:33.672Z,101935.14
2019-06-01T09:41:02.822Z,101931.28
2019-06-01T09:43:31.340Z,101932.86
2019-06-01T09:45:59.860Z,101928.27
2019-06-01T09:48:29.469Z,101917.89
2019-06-01T09:50:58.026Z,101920.30
2019-06-01T09:53:28.650Z,101919.59
2019-06-01T09:55:56.790Z,101919.73
2019-06-01T09:58:25.396Z,101919.50
2019-06-01T10:00:53.892Z,101920.27
2019-06-01T10:03:22.405Z,101921.41
2019-06-01T10:06:01.249Z,101925.09
2019-06-01T10:08:21.089Z,101923.02
2019-06-01T10:10:49.605Z,101926.31
2019-06-01T10:13:19.675Z,101923.02
2019-06-01T10:15:48.254Z,101912.56
2019-06-01T10:18:16.811Z,101909.40
2019-06-01T10:20:46.253Z,101921.66
2019-06-01T10:23:14.723Z,101912.59
2019-06-01T10:25:43.252Z,101920.88
2019-06-01T10:28:11.732Z,101915.73
2019-06-01T10:30:40.215Z,101912.58
2019-06-01T10:33:09.060Z,101918.32
2019-06-01T10:35:37.545Z,101920.56
2019-06-01T10:38:06.020Z,101923.39
2019-06-01T10:40:35.429Z,101928.05
2019-06-01T10:43:04.024Z,101921.82
2019-06-01T10:45:33.568Z,101918.11
2019-06-01T10:48:02.250Z,101913.80
2019-06-01T10:50:32.834Z,101916.25
2019-06-01T10:53:01.515Z,101912.75
2019-06-01T10:55:30.073Z,101908.63
2019-06-01T10:57:58.552Z,101917.02
2019-06-01T11:00:39.624Z,101909.28
2019-06-01T11:02:57.430Z,101907.87
2019-06-01T11:05:25.909Z,101910.33
2019-06-01T11:07:54.537Z,101913.34
2019-06-01T11:10:23.065Z,101911.84
2019-06-01T11:12:51.561Z,101912.58
2019-06-01T11:15:20.115Z,101911.64
2019-06-01T11:17:48.627Z,101906.95
2019-06-01T11:20:17.290Z,101900.87
2019-06-01T11:22:45.933Z,101896.88
2019-06-01T11:25:15.147Z,101900.02
2019-06-01T11:27:44.072Z,101897.35
2019-06-01T11:30:13.074Z,101893.35
2019-06-01T11:32:43.372Z,101885.52
2019-06-01T11:35:11.987Z,101887.06
2019-06-01T11:37:40.556Z,101885.00
2019-06-01T11:40:09.248Z,101873.00
2019-06-01T11:42:39.009Z,101872.24
2019-06-01T11:45:07.861Z,101880.38
2019-06-01T11:47:36.785Z,101874.78
2019-06-01T11:50:06.072Z,101872.94
2019-06-01T11:52:34.950Z,101879.55
2019-06-01T11:55:05.584Z,101870.95
2019-06-01T11:57:35.246Z,101871.30
2019-06-01T12:00:09.495Z,101873.83
2019-06-01T12:02:38.013Z,101872.07
2019-06-01T12:05:10.317Z,101872.20
2019-06-01T12:07:39.896Z,101871.38
2019-06-01T12:10:09.270Z,101866.09
2019-06-01T12:12:38.267Z,101866.52
2019-06-01T12:15:06.965Z,101870.81
2019-06-01T12:17:36.549Z,101860.37
2019-06-01T12:20:08.928Z,101865.33
2019-06-01T12:22:37.388Z,101860.85
2019-06-01T12:25:07.134Z,101855.54
2019-06-01T12:27:35.704Z,101849.21
2019-06-01T12:30:06.159Z,101858.08
2019-06-01T12:32:34.686Z,101853.55
2019-06-01T12:35:03.911Z,101856.27
2019-06-01T12:37:52.511Z,101854.37
2019-06-01T12:40:02.890Z,101849.42
2019-06-01T12:42:31.446Z,101840.51
2019-06-01T12:44:59.917Z,101837.19
2019-06-01T12:47:28.669Z,101846.25
2019-06-01T12:49:57.156Z,101843.54
2019-06-01T12:52:25.643Z,101836.39
2019-06-01T12:54:54.773Z,101835.20
2019-06-01T12:57:23.245Z,101831.42
2019-06-01T12:59:53.038Z,101827.56
2019-06-01T13:02:21.800Z,101820.84
2019-06-01T13:04:50.289Z,101816.99
2019-06-01T13:07:18.771Z,101821.06
2019-06-01T13:09:48.558Z,101817.27
2019-06-01T13:12:17.165Z,101820.34
2019-06-01T13:14:45.641Z,101813.01
2019-06-01T13:17:14.171Z,101805.91
2019-06-01T13:19:43.291Z,101806.77
2019-06-01T13:22:13.034Z,101792.99
2019-06-01T13:24:41.636Z,101810.86
2019-06-01T13:27:10.189Z,101801.52
2019-06-01T13:29:38.667Z,101795.77
2019-06-01T13:32:07.177Z,101794.52
2019-06-01T13:34:35.655Z,101789.66
2019-06-01T13:37:04.543Z,101791.84
2019-06-01T13:39:33.063Z,101794.43
2019-06-01T13:42:01.528Z,101795.24
2019-06-01T13:44:30.016Z,101788.52
2019-06-01T13:46:58.555Z,101782.13
2019-06-01T13:49:27.030Z,101780.47
2019-06-01T13:51:55.511Z,101790.81
2019-06-01T13:54:24.041Z,101789.17
2019-06-01T13:56:53.030Z,101782.30
2019-06-01T13:59:21.676Z,101785.75
2019-06-01T14:01:51.398Z,101787.02
2019-06-01T14:04:20.045Z,101783.63
2019-06-01T14:06:49.027Z,101777.14
2019-06-01T14:09:21.518Z,101774.66
2019-06-01T14:11:49.240Z,101782.08
2019-06-01T14:14:17.860Z,101777.59
2019-06-01T14:16:47.492Z,101775.73
2019-06-01T14:19:16.159Z,101772.91
2019-06-01T14:21:45.747Z,101777.97
2019-06-01T14:24:15.542Z,101779.48
2019-06-01T14:26:44.032Z,101773.25
2019-06-01T14:29:12.577Z,101768.47
2019-06-01T14:31:41.111Z,101768.11
2019-06-01T14:34:09.606Z,101769.47
2019-06-01T14:36:38.102Z,101772.41
2019-06-01T14:39:07.851Z,101765.25
2019-06-01T14:41:36.319Z,101769.94
2019-06-01T14:44:04.964Z,101767.48
2019-06-01T14:46:34.176Z,101770.30
2019-06-01T14:49:02.658Z,101768.55
2019-06-01T14:51:31.142Z,101771.91
2019-06-01T14:53:59.662Z,101768.44
2019-06-01T14:56:28.149Z,101771.55
2019-06-01T14:58:56.618Z,101770.59
2019-06-01T15:01:32.759Z,101770.48
2019-06-01T15:03:56.374Z,101760.74
2019-06-01T15:06:24.980Z,101753.75
2019-06-01T15:09:10.752Z,101755.84
2019-06-01T15:11:23.816Z,101714.78
2019-06-01T15:13:52.425Z,101735.41
2019-06-01T15:16:21.008Z,101744.30
2019-06-01T15:18:49.532Z,101735.89
2019-06-01T15:21:17.999Z,101738.09
2019-06-01T15:23:46.698Z,101738.00
2019-06-01T15:26:15.456Z,101741.02
2019-06-01T15:28:43.948Z,101734.34
2019-06-01T15:31:12.461Z,101730.64
2019-06-01T15:33:40.931Z,101727.72
2019-06-01T15:36:11.572Z,101732.84
2019-06-01T15:38:40.107Z,101727.17
2019-06-01T15:41:08.574Z,101728.26
2019-06-01T15:43:37.071Z,101723.93
2019-06-01T15:46:05.701Z,101727.27
2019-06-01T15:48:34.156Z,101721.03
2019-06-01T15:51:06.644Z,101724.72
2019-06-01T15:53:32.907Z,101720.60
2019-06-01T15:56:01.403Z,101720.50
2019-06-01T15:58:30.794Z,101718.57
2019-06-01T16:00:59.382Z,101714.63
2019-06-01T16:03:27.873Z,101707.77
2019-06-01T16:05:57.101Z,101715.63
2019-06-01T16:08:25.664Z,101710.08
2019-06-01T16:10:55.206Z,101712.53
2019-06-01T16:13:23.934Z,101715.09
2019-06-01T16:15:53.321Z,101706.06
2019-06-01T16:18:21.799Z,101707.67
2019-06-01T16:20:50.281Z,101706.17
2019-06-01T16:23:18.804Z,101706.14
2019-06-01T16:26:01.191Z,101704.69
2019-06-01T16:28:17.816Z,101713.11
2019-06-01T16:30:46.326Z,101710.79
2019-06-01T16:33:14.812Z,101712.09
2019-06-01T16:35:43.295Z,101714.17
2019-06-01T16:38:11.843Z,101718.34
2019-06-01T16:40:40.362Z,101714.45
2019-06-01T16:43:08.850Z,101708.74
2019-06-01T16:45:37.371Z,101712.98
2019-06-01T16:48:06.557Z,101715.98
2019-06-01T16:50:35.187Z,101711.06
2019-06-01T16:53:04.128Z,101712.22
2019-06-01T16:55:32.718Z,101710.33
2019-06-01T16:58:01.380Z,101708.51
2019-06-01T17:00:30.027Z,101703.74
2019-06-01T17:02:58.540Z,101710.05
2019-06-01T17:05:27.043Z,101702.72
2019-06-01T17:07:56.662Z,101707.56
2019-06-01T17:10:26.719Z,101706.61
2019-06-01T17:12:56.734Z,101703.33
2019-06-01T17:15:29.738Z,101711.25
2019-06-01T17:18:03.013Z,101704.02
2019-06-01T17:20:43.420Z,101710.34
2019-06-01T17:23:25.772Z,101712.77
2019-06-01T17:25:42.496Z,101710.52
2019-06-01T17:28:11.252Z,101714.61
2019-06-01T17:30:40.059Z,101718.57
2019-06-01T17:33:08.855Z,101723.72
2019-06-01T17:35:37.442Z,101720.34
2019-06-01T17:38:07.296Z,101728.53
2019-06-01T17:40:39.768Z,101723.94
2019-06-01T17:43:08.907Z,101732.75
2019-06-01T17:45:37.465Z,101735.28
2019-06-01T17:48:22.993Z,101734.09
2019-06-01T17:50:36.928Z,101740.77
2019-06-01T17:53:06.730Z,101742.20
2019-06-01T17:55:39.590Z,101739.00
2019-06-01T17:58:10.010Z,101739.92
2019-06-01T18:00:38.803Z,101745.55
2019-06-01T18:03:08.028Z,101745.91
2019-06-01T18:05:37.018Z,101741.31
2019-06-01T18:08:06.177Z,101729.56
2019-06-01T18:10:35.278Z,101730.94
2019-06-01T18:13:04.300Z,101702.14
2019-06-01T18:15:32.851Z,101740.86
2019-06-01T18:18:02.300Z,101738.12
2019-06-01T18:20:30.979Z,101750.78
2019-06-01T18:22:59.526Z,101754.47
2019-06-01T18:25:28.275Z,101751.03
2019-06-01T18:27:56.882Z,101747.48
2019-06-01T18:30:25.933Z,101753.62
2019-06-01T18:32:56.104Z,101754.49
2019-06-01T18:35:24.998Z,101759.34
2019-06-01T18:37:53.545Z,101759.27
2019-06-01T18:40:23.268Z,101757.32
2019-06-01T18:42:54.969Z,101752.30
2019-06-01T18:45:23.501Z,101755.20
2019-06-01T18:47:52.057Z,101757.29
2019-06-01T18:50:22.496Z,101758.89
2019-06-01T18:52:51.009Z,101763.19
2019-06-01T18:55:19.783Z,101767.03
2019-06-01T18:57:50.517Z,101773.91
2019-06-01T19:00:19.083Z,101766.63
2019-06-01T19:02:47.578Z,101774.81
2019-06-01T19:05:16.180Z,101775.95
2019-06-01T19:07:44.737Z,101781.02
2019-06-01T19:10:14.193Z,101785.24
2019-06-01T19:12:42.822Z,101786.33
2019-06-01T19:15:25.287Z,101792.69
2019-06-01T19:17:43.236Z,101785.81
2019-06-01T19:20:15.176Z,101798.29
2019-06-01T19:22:43.887Z,101800.16
2019-06-01T19:25:13.240Z,101805.60
2019-06-01T19:27:41.893Z,101805.31
2019-06-01T19:30:13.560Z,101811.16
2019-06-01T19:32:43.205Z,101817.05
2019-06-01T19:35:13.604Z,101816.30
2019-06-01T19:37:42.959Z,101821.23
2019-06-01T19:40:11.818Z,101817.38
2019-06-01T19:42:40.580Z,101829.38
2019-06-01T19:45:25.298Z,101830.33
2019-06-01T19:47:42.850Z,101832.64
2019-06-01T19:50:12.191Z,101836.23
2019-06-01T19:52:40.819Z,101836.30
2019-06-01T19:55:10.781Z,101842.52
2019-06-01T19:57:39.652Z,101842.59
2019-06-01T20:00:09.998Z,101848.31
2019-06-01T20:02:38.783Z,101848.38
2019-06-01T20:05:07.491Z,101851.08
2019-06-01T20:07:35.990Z,101855.09
2019-06-01T20:10:10.166Z,101853.84
2019-06-01T20:12:39.848Z,101852.58
2019-06-01T20:15:08.417Z,101857.42
2019-06-01T20:17:36.924Z,101852.66
2019-06-01T20:20:08.336Z,101859.27
2019-06-01T20:22:36.830Z,101858.87
2019-06-01T20:25:06.004Z,101861.55
2019-06-01T20:27:34.596Z,101866.39
2019-06-01T20:30:04.058Z,101872.09
2019-06-01T20:32:32.559Z,101876.49
2019-06-01T20:35:01.082Z,101876.52
2019-06-01T20:37:30.122Z,101875.22
2019-06-01T20:40:01.241Z,101871.25
2019-06-01T20:42:32.732Z,101880.91
2019-06-01T20:44:59.976Z,101883.56
2019-06-01T20:47:28.713Z,101880.48
2019-06-01T20:49:57.678Z,101875.25
2019-06-01T20:52:27.504Z,101881.81
2019-06-01T20:54:58.531Z,101875.68
2019-06-01T20:57:27.511Z,101875.25
2019-06-01T20:59:55.999Z,101879.22
2019-06-01T21:02:24.490Z,101872.66
2019-06-01T21:04:53.056Z,101869.12
2019-06-01T21:07:21.989Z,101879.67
2019-06-01T21:09:50.554Z,101876.17
2019-06-01T21:12:20.294Z,101874.88
2019-06-01T21:14:49.273Z,101880.14
2019-06-01T21:17:18.493Z,101884.98
2019-06-01T21:19:47.113Z,101882.34
2019-06-01T21:22:16.471Z,101888.52
2019-06-01T21:24:45.931Z,101884.55
2019-06-01T21:27:16.576Z,101883.70
2019-06-01T21:29:45.375Z,101882.84
2019-06-01T21:32:15.522Z,101887.66
2019-06-01T21:34:44.209Z,101887.22
2019-06-01T21:37:13.169Z,101890.31
2019-06-01T21:39:42.474Z,101887.67
2019-06-01T21:42:13.625Z,101891.20
2019-06-01T21:44:43.828Z,101891.63
2019-06-01T21:47:15.523Z,101884.19
2019-06-01T21:49:45.697Z,101891.22
2019-06-01T21:52:15.831Z,101885.92
2019-06-01T21:54:44.436Z,101886.80
2019-06-01T21:57:14.432Z,101886.36
2019-06-01T21:59:42.926Z,101880.24
2019-06-01T22:02:14.546Z,101882.88
2019-06-01T22:04:43.086Z,101880.25
2019-06-01T22:07:11.890Z,101884.60
2019-06-01T22:09:40.392Z,101889.87
2019-06-01T22:12:08.924Z,101887.67
2019-06-01T22:14:37.410Z,101883.74
2019-06-01T22:17:05.962Z,101891.17
2019-06-01T22:19:34.475Z,101884.60
2019-06-01T22:22:02.973Z,101885.04
2019-06-01T22:24:31.453Z,101886.80
2019-06-01T22:26:59.974Z,101888.51
2019-06-01T22:29:28.682Z,101881.06
2019-06-01T22:31:58.605Z,101880.17
2019-06-01T22:34:27.128Z,101875.80
2019-06-01T22:36:55.610Z,101867.48
2019-06-01T22:39:24.772Z,101874.91
2019-06-01T22:41:54.568Z,101878.81
2019-06-01T22:44:24.115Z,101877.45
2019-06-01T22:46:52.741Z,101874.80
2019-06-01T22:49:22.681Z,101880.91
2019-06-01T22:51:51.245Z,101879.55
2019-06-01T22:54:20.963Z,101879.10
2019-06-01T22:56:50.063Z,101876.00
2019-06-01T22:59:20.525Z,101873.36
2019-06-01T23:01:49.119Z,101879.92
2019-06-01T23:04:17.645Z,101875.08
2019-06-01T23:06:46.175Z,101876.81
2019-06-01T23:09:14.673Z,101879.43
2019-06-01T23:11:43.203Z,101881.59
2019-06-01T23:14:11.693Z,101886.41
2019-06-01T23:16:40.195Z,101892.07
2019-06-01T23:19:08.757Z,101892.07
2019-06-01T23:21:37.256Z,101886.81
2019-06-01T23:24:05.745Z,101891.16
2019-06-01T23:26:34.267Z,101885.91
2019-06-01T23:29:02.761Z,101888.97
2019-06-01T23:31:32.322Z,101886.35
2019-06-01T23:34:01.075Z,101882.86
2019-06-01T23:36:30.679Z,101885.05
2019-06-01T23:38:59.228Z,101883.30
2019-06-01T23:41:28.749Z,101883.28
2019-06-01T23:44:11.267Z,101880.67
2019-06-01T23:46:29.186Z,101885.87
2019-06-01T23:48:57.773Z,101878.43
2019-06-01T23:51:27.347Z,101872.31
2019-06-01T23:53:56.134Z,101874.89
2019-06-01T23:56:25.656Z,101873.53
2019-06-01T23:58:54.257Z,101873.53
